createdAt,value
2022-11-06T00:00:39.110Z,9.10
2022-11-06T00:01:20.844Z,9.30
2022-11-06T00:02:02.601Z,9.20
2022-11-06T00:02:45.012Z,9.20
2022-11-06T00:03:26.848Z,9.10
2022-11-06T00:04:08.519Z,8.90
2022-11-06T00:04:50.237Z,9.00
2022-11-06T00:05:51.146Z,9.00
2022-11-06T00:06:48.538Z,9.10
2022-11-06T00:07:30.160Z,9.20
2022-11-06T00:08:12.201Z,9.70
2022-11-06T00:08:54.600Z,9.00
2022-11-06T00:09:36.289Z,9.80
2022-11-06T00:10:18.305Z,9.00
2022-11-06T00:11:00.713Z,10.00
2022-11-06T00:11:43.063Z,9.70
2022-11-06T00:12:24.736Z,10.40
2022-11-06T00:13:06.511Z,10.30
2022-11-06T00:13:49.388Z,9.30
2022-11-06T00:14:31.013Z,9.60
2022-11-06T00:15:13.396Z,9.90
2022-11-06T00:15:55.156Z,9.70
2022-11-06T00:16:38.736Z,10.40
2022-11-06T00:17:20.366Z,9.20
2022-11-06T00:18:02.152Z,8.90
2022-11-06T00:18:43.898Z,9.00
2022-11-06T00:19:25.626Z,9.20
2022-11-06T00:20:08.407Z,9.00
2022-11-06T00:20:50.045Z,9.00
2022-11-06T00:21:32.069Z,9.30
2022-11-06T00:22:13.706Z,9.60
2022-11-06T00:22:55.358Z,9.00
2022-11-06T00:23:37.482Z,9.30
2022-11-06T00:24:19.155Z,9.20
2022-11-06T00:25:01.165Z,9.40
2022-11-06T00:25:42.903Z,9.30
2022-11-06T00:26:26.238Z,9.40
2022-11-06T00:27:07.893Z,9.40
2022-11-06T00:27:49.588Z,10.10
2022-11-06T00:28:31.244Z,9.40
2022-11-06T00:29:14.297Z,9.40
2022-11-06T00:29:56.107Z,9.60
2022-11-06T00:30:37.819Z,9.00
2022-11-06T00:31:22.585Z,9.20
2022-11-06T00:32:04.421Z,10.20
2022-11-06T00:32:46.967Z,9.20
2022-11-06T00:33:28.621Z,9.60
2022-11-06T00:34:10.706Z,9.50
2022-11-06T00:34:52.337Z,10.00
2022-11-06T00:35:33.956Z,8.90
2022-11-06T00:36:18.370Z,9.40
2022-11-06T00:37:00.055Z,10.40
2022-11-06T00:37:41.719Z,9.00
2022-11-06T00:38:23.410Z,9.50
2022-11-06T00:39:05.115Z,9.90
2022-11-06T00:39:46.792Z,9.30
2022-11-06T00:40:28.468Z,9.10
2022-11-06T00:41:13.446Z,8.90
2022-11-06T00:41:55.079Z,10.10
2022-11-06T00:42:36.704Z,9.90
2022-11-06T00:43:18.369Z,9.20
2022-11-06T00:44:01.952Z,9.90
2022-11-06T00:44:43.650Z,9.40
2022-11-06T00:45:26.163Z,9.30
2022-11-06T00:46:17.615Z,9.90
2022-11-06T00:46:59.232Z,9.90
2022-11-06T00:47:40.853Z,9.10
2022-11-06T00:48:22.509Z,8.90
2022-11-06T00:49:04.362Z,9.20
2022-11-06T00:49:46.154Z,9.70
2022-11-06T00:50:27.889Z,9.30
2022-11-06T00:51:12.588Z,9.40
2022-11-06T00:51:54.499Z,9.10
2022-11-06T00:52:36.123Z,10.00
2022-11-06T00:53:17.817Z,9.50
2022-11-06T00:54:01.674Z,10.20
2022-11-06T00:54:43.385Z,9.80
2022-11-06T00:55:25.136Z,9.00
2022-11-06T00:56:09.625Z,9.30
2022-11-06T00:56:51.302Z,9.10
2022-11-06T00:57:32.929Z,9.50
2022-11-06T00:58:14.824Z,9.80
2022-11-06T00:58:59.510Z,9.80
2022-11-06T00:59:41.583Z,9.10
2022-11-06T01:00:23.315Z,9.10
2022-11-06T01:01:10.812Z,8.90
2022-11-06T01:01:52.773Z,9.00
2022-11-06T01:02:34.627Z,9.20
2022-11-06T01:03:16.388Z,8.90
2022-11-06T01:04:13.395Z,9.10
2022-11-06T01:04:55.068Z,9.20
2022-11-06T01:05:36.718Z,9.30
2022-11-06T01:06:20.781Z,9.60
2022-11-06T01:07:02.401Z,9.00
2022-11-06T01:07:44.216Z,9.20
2022-11-06T01:08:25.900Z,9.50
2022-11-06T01:09:08.911Z,9.20
2022-11-06T01:09:50.590Z,9.70
2022-11-06T01:10:32.313Z,9.30
2022-11-06T01:11:46.415Z,9.20
2022-11-06T01:12:34.167Z,9.10
2022-11-06T01:13:17.148Z,10.00
2022-11-06T01:14:01.472Z,9.40
2022-11-06T01:14:43.961Z,9.30
2022-11-06T01:15:25.640Z,9.40
2022-11-06T01:16:10.096Z,9.30
2022-11-06T01:16:52.272Z,8.90
2022-11-06T01:17:35.287Z,9.20
2022-11-06T01:18:16.937Z,9.00
2022-11-06T01:18:59.488Z,9.50
2022-11-06T01:19:41.306Z,9.40
2022-11-06T01:20:22.934Z,9.30
2022-11-06T01:21:16.073Z,9.40
2022-11-06T01:21:57.696Z,9.40
2022-11-06T01:22:39.367Z,9.30
2022-11-06T01:23:21.004Z,9.30
2022-11-06T01:24:06.259Z,9.20
2022-11-06T01:24:48.203Z,9.10
2022-11-06T01:25:29.907Z,9.00
2022-11-06T01:26:13.377Z,9.20
2022-11-06T01:27:57.002Z,9.10
2022-11-06T01:28:39.987Z,9.20
2022-11-06T01:29:21.700Z,9.40
2022-11-06T01:30:03.952Z,9.10
2022-11-06T01:30:45.592Z,8.90
2022-11-06T01:31:29.540Z,9.60
2022-11-06T01:32:11.624Z,9.60
2022-11-06T01:32:53.280Z,9.10
2022-11-06T01:33:35.313Z,9.00
2022-11-06T01:34:17.564Z,9.20
2022-11-06T01:34:59.227Z,9.00
2022-11-06T01:35:51.435Z,9.00
2022-11-06T01:36:33.568Z,9.10
2022-11-06T01:37:15.302Z,9.00
2022-11-06T01:37:56.992Z,8.90
2022-11-06T01:38:42.963Z,8.50
2022-11-06T01:39:24.672Z,9.90
2022-11-06T01:40:06.579Z,8.60
2022-11-06T01:40:49.119Z,9.00
2022-11-06T01:41:36.518Z,9.00
2022-11-06T01:42:20.893Z,9.20
2022-11-06T01:43:04.163Z,8.70
2022-11-06T01:43:56.554Z,8.80
2022-11-06T01:44:41.338Z,9.00
2022-11-06T01:45:38.948Z,8.90
2022-11-06T01:46:23.315Z,8.70
2022-11-06T01:47:18.193Z,8.60
2022-11-06T01:48:00.390Z,9.00
2022-11-06T01:48:46.244Z,10.20
2022-11-06T01:49:30.668Z,8.90
2022-11-06T01:50:14.680Z,8.70
2022-11-06T01:50:57.921Z,8.90
2022-11-06T01:52:03.085Z,10.20
2022-11-06T01:52:46.750Z,8.90
2022-11-06T01:53:28.534Z,8.90
2022-11-06T01:54:12.072Z,8.50
2022-11-06T01:54:57.137Z,9.60
2022-11-06T01:55:45.475Z,8.90
2022-11-06T01:56:27.128Z,8.90
2022-11-06T01:57:10.488Z,9.50
2022-11-06T01:57:52.748Z,8.60
2022-11-06T01:58:36.149Z,9.00
2022-11-06T01:59:20.512Z,9.80
2022-11-06T02:00:02.591Z,9.00
2022-11-06T02:00:45.031Z,8.80
2022-11-06T02:01:26.820Z,9.00
2022-11-06T02:02:08.784Z,8.80
2022-11-06T02:02:51.178Z,8.90
2022-11-06T02:03:33.545Z,9.10
2022-11-06T02:04:20.039Z,9.60
2022-11-06T02:05:01.808Z,8.90
2022-11-06T02:05:43.917Z,8.90
2022-11-06T02:06:26.551Z,8.80
2022-11-06T02:07:08.841Z,9.20
2022-11-06T02:07:52.015Z,8.90
2022-11-06T02:08:34.376Z,9.50
2022-11-06T02:09:17.148Z,8.90
2022-11-06T02:09:58.815Z,8.80
2022-11-06T02:10:41.873Z,8.80
2022-11-06T02:11:23.547Z,9.30
2022-11-06T02:12:21.861Z,9.00
2022-11-06T02:13:09.473Z,9.00
2022-11-06T02:14:28.290Z,8.90
2022-11-06T02:15:39.405Z,8.90
2022-11-06T02:16:43.275Z,9.60
2022-11-06T02:17:41.299Z,9.00
2022-11-06T02:18:49.528Z,9.00
2022-11-06T02:19:58.269Z,9.10
2022-11-06T02:20:51.646Z,8.90
2022-11-06T02:21:54.725Z,8.80
2022-11-06T02:23:05.655Z,8.90
2022-11-06T02:24:11.625Z,8.90
2022-11-06T02:24:59.109Z,8.90
2022-11-06T02:25:40.729Z,8.90
2022-11-06T02:27:00.099Z,9.60
2022-11-06T02:27:47.052Z,8.70
2022-11-06T02:28:36.968Z,9.20
2022-11-06T02:29:25.922Z,9.40
2022-11-06T02:30:14.236Z,9.40
2022-11-06T02:30:58.187Z,9.30
2022-11-06T02:31:42.357Z,9.80
2022-11-06T02:32:48.604Z,9.10
2022-11-06T02:33:34.514Z,8.70
2022-11-06T02:42:40.486Z,8.70
2022-11-06T02:43:28.003Z,9.50
2022-11-06T02:44:13.168Z,9.30
2022-11-06T02:44:57.214Z,9.60
2022-11-06T02:45:55.727Z,8.90
2022-11-06T02:46:39.901Z,9.20
2022-11-06T02:47:23.286Z,9.50
2022-11-06T02:48:09.037Z,8.90
2022-11-06T02:48:57.228Z,8.70
2022-11-06T02:49:49.329Z,9.50
2022-11-06T02:51:19.687Z,8.90
2022-11-06T02:52:08.307Z,9.20
2022-11-06T02:55:55.753Z,8.70
2022-11-06T02:56:42.014Z,8.70
2022-11-06T02:57:26.485Z,10.40
2022-11-06T02:58:39.090Z,10.00
2022-11-06T02:59:26.587Z,8.70
2022-11-06T03:00:12.359Z,8.70
2022-11-06T03:01:00.329Z,8.70
2022-11-06T03:01:52.839Z,9.10
2022-11-06T03:02:40.682Z,8.70
2022-11-06T03:03:29.335Z,9.30
2022-11-06T03:04:26.677Z,9.40
2022-11-06T03:05:17.145Z,8.70
2022-11-06T03:06:06.353Z,8.70
2022-11-06T03:07:14.550Z,8.70
2022-11-06T03:08:10.219Z,8.70
2022-11-06T03:09:14.715Z,8.70
2022-11-06T03:09:56.980Z,8.70
2022-11-06T03:11:01.696Z,8.70
2022-11-06T03:11:43.320Z,8.80
2022-11-06T03:12:32.664Z,8.70
2022-11-06T03:13:20.676Z,8.70
2022-11-06T03:14:02.256Z,8.70
2022-11-06T03:14:59.773Z,8.70
2022-11-06T03:16:01.163Z,8.70
2022-11-06T03:16:58.109Z,8.70
2022-11-06T03:17:47.369Z,8.70
2022-11-06T03:19:02.807Z,10.50
2022-11-06T03:20:03.059Z,8.70
2022-11-06T03:21:00.155Z,8.70
2022-11-06T03:22:00.008Z,8.70
2022-11-06T03:22:55.665Z,8.70
2022-11-06T03:23:48.064Z,8.70
2022-11-06T03:24:57.357Z,9.70
2022-11-06T03:25:43.856Z,8.60
2022-11-06T03:26:33.677Z,8.70
2022-11-06T03:27:19.493Z,9.40
2022-11-06T03:28:28.499Z,8.70
2022-11-06T03:29:22.559Z,8.70
2022-11-06T03:30:15.275Z,8.70
2022-11-06T03:31:08.136Z,8.70
2022-11-06T03:31:54.003Z,8.60
2022-11-06T03:32:42.929Z,8.50
2022-11-06T03:33:35.879Z,8.80
2022-11-06T03:34:31.757Z,8.70
2022-11-06T03:35:16.058Z,8.70
2022-11-06T03:36:12.143Z,8.70
2022-11-06T03:37:07.408Z,8.70
2022-11-06T03:38:03.421Z,8.60
2022-11-06T03:38:52.988Z,8.70
2022-11-06T03:39:43.134Z,8.80
2022-11-06T03:40:28.791Z,8.70
2022-11-06T03:41:17.263Z,8.60
2022-11-06T03:42:20.494Z,8.60
2022-11-06T03:43:05.211Z,8.60
2022-11-06T03:43:49.026Z,9.80
2022-11-06T03:44:35.073Z,8.60
2022-11-06T03:45:21.561Z,9.50
2022-11-06T03:46:07.657Z,8.80
2022-11-06T03:46:58.090Z,8.60
2022-11-06T03:47:45.334Z,8.50
2022-11-06T03:48:38.372Z,8.70
2022-11-06T03:49:29.879Z,8.60
2022-11-06T03:50:28.576Z,9.30
2022-11-06T03:51:15.671Z,8.60
2022-11-06T03:52:11.367Z,8.60
2022-11-06T03:53:14.211Z,8.60
2022-11-06T03:54:15.694Z,8.60
2022-11-06T03:55:15.123Z,8.60
2022-11-06T03:56:26.945Z,8.60
2022-11-06T03:57:16.008Z,8.60
2022-11-06T03:58:15.444Z,8.60
2022-11-06T03:59:01.823Z,8.60
2022-11-06T03:59:48.263Z,8.60
2022-11-06T04:00:31.755Z,8.50
2022-11-06T04:01:17.671Z,8.60
2022-11-06T04:02:01.928Z,9.90
2022-11-06T04:02:50.571Z,8.50
2022-11-06T04:03:44.086Z,8.50
2022-11-06T04:04:30.484Z,8.60
2022-11-06T04:05:22.087Z,8.80
2022-11-06T04:06:31.733Z,8.60
2022-11-06T04:07:23.559Z,8.50
2022-11-06T04:08:26.020Z,8.50
2022-11-06T04:09:28.412Z,9.30
2022-11-06T04:10:30.715Z,9.00
2022-11-06T04:11:35.481Z,8.50
2022-11-06T04:12:42.787Z,8.50
2022-11-06T04:13:45.734Z,10.00
2022-11-06T04:14:29.438Z,8.50
2022-11-06T04:15:16.573Z,8.50
2022-11-06T04:15:58.373Z,8.50
2022-11-06T04:16:43.678Z,9.70
2022-11-06T04:17:28.815Z,8.40
2022-11-06T04:18:14.940Z,8.50
2022-11-06T04:18:56.907Z,9.60
2022-11-06T04:19:44.680Z,8.50
2022-11-06T04:20:54.343Z,9.10
2022-11-06T04:21:35.926Z,8.40
2022-11-06T04:22:23.376Z,8.40
2022-11-06T04:23:40.754Z,8.40
2022-11-06T04:25:11.645Z,8.50
2022-11-06T04:26:20.619Z,8.50
2022-11-06T04:27:20.100Z,8.20
2022-11-06T04:28:22.707Z,8.50
2022-11-06T04:29:24.197Z,8.40
2022-11-06T04:30:10.516Z,8.50
2022-11-06T04:31:11.482Z,8.40
2022-11-06T04:32:12.509Z,8.70
2022-11-06T04:33:11.355Z,8.40
2022-11-06T04:33:58.759Z,8.30
2022-11-06T04:34:53.576Z,8.40
2022-11-06T04:35:46.995Z,8.40
2022-11-06T04:36:48.457Z,8.40
2022-11-06T04:37:53.359Z,8.40
2022-11-06T04:39:05.148Z,8.50
2022-11-06T04:40:08.901Z,8.50
2022-11-06T04:41:05.556Z,9.00
2022-11-06T04:42:11.688Z,8.50
2022-11-06T04:42:59.024Z,8.50
2022-11-06T04:43:54.412Z,11.90
2022-11-06T04:44:43.668Z,8.60
2022-11-06T04:45:39.782Z,9.00
2022-11-06T04:46:27.397Z,8.40
2022-11-06T04:47:12.694Z,8.10
2022-11-06T04:47:54.991Z,9.20
2022-11-06T04:48:38.447Z,9.00
2022-11-06T04:49:21.331Z,8.30
2022-11-06T04:50:05.783Z,8.50
2022-11-06T04:50:53.725Z,8.50
2022-11-06T04:51:37.968Z,8.90
2022-11-06T04:52:25.040Z,8.40
2022-11-06T04:53:11.560Z,8.40
2022-11-06T04:53:54.139Z,8.50
2022-11-06T04:54:36.617Z,8.50
2022-11-06T04:55:20.047Z,8.40
2022-11-06T04:56:09.379Z,8.60
2022-11-06T04:56:51.044Z,8.50
2022-11-06T04:57:32.739Z,8.40
2022-11-06T04:58:15.062Z,8.50
2022-11-06T04:58:57.361Z,8.40
2022-11-06T04:59:39.108Z,8.50
2022-11-06T05:00:20.874Z,8.40
2022-11-06T05:01:02.760Z,8.40
2022-11-06T05:01:45.951Z,8.70
2022-11-06T05:02:27.859Z,8.60
2022-11-06T05:03:09.551Z,8.50
2022-11-06T05:03:51.552Z,8.40
2022-11-06T05:04:33.987Z,8.40
2022-11-06T05:05:15.675Z,9.20
2022-11-06T05:05:57.511Z,8.40
2022-11-06T05:06:39.173Z,8.50
2022-11-06T05:07:20.882Z,8.50
2022-11-06T05:08:02.775Z,8.50
2022-11-06T05:08:44.652Z,8.50
2022-11-06T05:09:26.356Z,8.50
2022-11-06T05:10:09.356Z,8.40
2022-11-06T05:10:51.026Z,8.40
2022-11-06T05:11:32.715Z,8.60
2022-11-06T05:12:14.522Z,8.40
2022-11-06T05:12:56.171Z,9.40
2022-11-06T05:13:38.339Z,8.40
2022-11-06T05:14:20.142Z,8.50
2022-11-06T05:15:01.810Z,9.70
2022-11-06T05:15:43.580Z,8.40
2022-11-06T05:16:25.272Z,8.30
2022-11-06T05:17:07.292Z,8.40
2022-11-06T05:17:48.992Z,8.40
2022-11-06T05:18:31.124Z,8.40
2022-11-06T05:19:12.838Z,8.40
2022-11-06T05:19:54.509Z,9.30
2022-11-06T05:20:36.149Z,9.30
2022-11-06T05:21:36.448Z,8.40
2022-11-06T05:22:36.836Z,8.40
2022-11-06T05:23:18.502Z,8.80
2022-11-06T05:24:00.157Z,8.70
2022-11-06T05:24:41.789Z,8.10
2022-11-06T05:25:24.460Z,8.30
2022-11-06T05:26:06.895Z,9.00
2022-11-06T05:26:48.637Z,8.40
2022-11-06T05:27:30.268Z,8.30
2022-11-06T05:28:12.222Z,8.40
2022-11-06T05:28:54.082Z,8.30
2022-11-06T05:29:35.758Z,8.50
2022-11-06T05:30:17.676Z,9.30
2022-11-06T05:30:59.490Z,9.00
2022-11-06T05:31:41.184Z,8.40
2022-11-06T05:32:22.896Z,8.40
2022-11-06T05:33:04.584Z,8.40
2022-11-06T05:33:46.245Z,8.40
2022-11-06T05:34:27.931Z,8.80
2022-11-06T05:35:09.850Z,8.40
2022-11-06T05:35:52.123Z,9.40
2022-11-06T05:36:33.994Z,8.50
2022-11-06T05:37:15.642Z,8.60
2022-11-06T05:38:01.725Z,8.50
2022-11-06T05:38:43.587Z,8.50
2022-11-06T05:39:25.325Z,8.50
2022-11-06T05:40:08.504Z,8.60
2022-11-06T05:40:50.179Z,8.50
2022-11-06T05:41:31.899Z,9.30
2022-11-06T05:42:13.733Z,8.50
2022-11-06T05:42:55.453Z,8.20
2022-11-06T05:43:37.488Z,8.50
2022-11-06T05:44:19.169Z,9.70
2022-11-06T05:45:00.801Z,9.20
2022-11-06T05:45:42.441Z,8.50
2022-11-06T05:46:46.944Z,8.80
2022-11-06T05:47:25.777Z,9.30
2022-11-06T05:48:07.460Z,8.50
2022-11-06T05:48:49.182Z,8.50
2022-11-06T05:49:30.834Z,8.50
2022-11-06T05:50:12.622Z,8.50
2022-11-06T05:50:59.601Z,8.50
2022-11-06T05:51:41.365Z,8.60
2022-11-06T05:52:23.104Z,8.90
2022-11-06T05:53:04.811Z,8.80
2022-11-06T05:53:46.470Z,8.30
2022-11-06T05:54:28.129Z,8.70
2022-11-06T05:55:14.433Z,8.50
2022-11-06T05:55:56.976Z,9.20
2022-11-06T05:56:38.655Z,8.60
2022-11-06T05:57:20.345Z,8.60
2022-11-06T05:58:01.981Z,8.50
2022-11-06T05:58:43.642Z,8.60
2022-11-06T05:59:25.332Z,8.60
2022-11-06T06:00:08.083Z,8.60
2022-11-06T06:00:49.796Z,8.60
2022-11-06T06:01:31.663Z,9.20
2022-11-06T06:02:13.508Z,8.50
2022-11-06T06:02:55.348Z,8.60
2022-11-06T06:03:37.059Z,9.20
2022-11-06T06:04:18.712Z,9.20
2022-11-06T06:05:00.364Z,9.90
2022-11-06T06:05:41.998Z,9.00
2022-11-06T06:06:23.807Z,8.60
2022-11-06T06:07:05.495Z,9.00
2022-11-06T06:07:47.150Z,8.60
2022-11-06T06:08:28.775Z,10.20
2022-11-06T06:09:10.448Z,9.50
2022-11-06T06:09:52.117Z,8.50
2022-11-06T06:10:34.087Z,8.60
2022-11-06T06:11:15.731Z,9.70
2022-11-06T06:11:57.420Z,8.50
2022-11-06T06:12:39.575Z,9.80
2022-11-06T06:13:21.292Z,8.60
2022-11-06T06:14:02.966Z,8.60
2022-11-06T06:14:50.113Z,8.50
2022-11-06T06:15:32.155Z,8.50
2022-11-06T06:16:13.962Z,9.00
2022-11-06T06:16:55.599Z,8.60
2022-11-06T06:17:37.346Z,8.50
2022-11-06T06:18:19.176Z,8.90
2022-11-06T06:19:00.840Z,8.60
2022-11-06T06:19:42.483Z,8.60
2022-11-06T06:20:24.150Z,8.60
2022-11-06T06:21:06.105Z,9.50
2022-11-06T06:21:47.796Z,8.60
2022-11-06T06:22:29.505Z,8.50
2022-11-06T06:23:11.283Z,8.60
2022-11-06T06:23:52.940Z,8.60
2022-11-06T06:24:35.317Z,8.20
2022-11-06T06:25:22.630Z,8.60
2022-11-06T06:26:05.647Z,8.60
2022-11-06T06:26:47.500Z,8.60
2022-11-06T06:27:31.045Z,8.30
2022-11-06T06:28:12.929Z,8.50
2022-11-06T06:28:54.764Z,8.60
2022-11-06T06:29:36.431Z,8.60
2022-11-06T06:30:18.775Z,8.60
2022-11-06T06:31:04.799Z,8.60
2022-11-06T06:31:46.513Z,8.60
2022-11-06T06:32:28.139Z,8.60
2022-11-06T06:33:09.770Z,8.60
2022-11-06T06:33:51.404Z,8.60
2022-11-06T06:34:33.036Z,8.60
2022-11-06T06:35:14.751Z,9.10
2022-11-06T06:35:56.398Z,8.60
2022-11-06T06:36:38.014Z,8.30
2022-11-06T06:37:20.386Z,8.60
2022-11-06T06:38:02.147Z,8.90
2022-11-06T06:38:43.831Z,8.60
2022-11-06T06:39:25.484Z,8.50
2022-11-06T06:40:07.697Z,8.90
2022-11-06T06:40:49.338Z,8.60
2022-11-06T06:41:31.050Z,9.60
2022-11-06T06:42:12.693Z,8.50
2022-11-06T06:42:58.148Z,8.80
2022-11-06T06:43:39.843Z,8.50
2022-11-06T06:44:22.493Z,8.60
2022-11-06T06:45:04.461Z,8.60
2022-11-06T06:45:46.087Z,8.60
2022-11-06T06:46:27.756Z,8.80
2022-11-06T06:47:09.439Z,8.60
2022-11-06T06:47:52.120Z,8.50
2022-11-06T06:48:34.140Z,8.60
2022-11-06T06:49:15.800Z,8.30
2022-11-06T06:49:57.444Z,8.60
2022-11-06T06:50:39.066Z,8.60
2022-11-06T06:51:23.934Z,8.40
2022-11-06T06:52:06.006Z,8.50
2022-11-06T06:52:47.641Z,8.40
2022-11-06T06:53:29.769Z,9.00
2022-11-06T06:54:11.419Z,9.40
2022-11-06T06:54:53.066Z,8.60
2022-11-06T06:55:34.754Z,8.50
2022-11-06T06:56:16.443Z,8.50
2022-11-06T06:56:58.148Z,8.50
2022-11-06T06:57:39.803Z,9.60
2022-11-06T06:58:21.799Z,8.60
2022-11-06T06:59:03.539Z,8.60
2022-11-06T06:59:45.215Z,8.60
2022-11-06T07:00:27.977Z,9.30
2022-11-06T07:01:10.934Z,8.50
2022-11-06T07:01:52.747Z,8.60
2022-11-06T07:02:34.767Z,9.00
2022-11-06T07:03:16.553Z,8.30
2022-11-06T07:04:03.741Z,8.60
2022-11-06T07:04:45.995Z,8.60
2022-11-06T07:05:27.724Z,8.10
2022-11-06T07:06:09.425Z,8.60
2022-11-06T07:06:54.450Z,9.50
2022-11-06T07:07:36.158Z,8.70
2022-11-06T07:08:17.784Z,9.50
2022-11-06T07:08:59.475Z,8.60
2022-11-06T07:09:41.170Z,8.40
2022-11-06T07:10:22.952Z,9.70
2022-11-06T07:11:09.064Z,8.60
2022-11-06T07:11:51.052Z,8.60
2022-11-06T07:12:32.703Z,8.60
2022-11-06T07:13:14.710Z,8.70
2022-11-06T07:13:56.457Z,9.10
2022-11-06T07:14:38.154Z,8.70
2022-11-06T07:15:19.783Z,8.70
2022-11-06T07:16:09.980Z,8.70
2022-11-06T07:16:53.932Z,8.70
2022-11-06T07:17:35.949Z,8.60
2022-11-06T07:18:17.861Z,8.70
2022-11-06T07:18:59.513Z,8.50
2022-11-06T07:19:41.164Z,9.10
2022-11-06T07:20:22.809Z,8.60
2022-11-06T07:21:06.140Z,8.80
2022-11-06T07:21:51.585Z,8.70
2022-11-06T07:22:37.428Z,8.80
2022-11-06T07:23:19.475Z,9.30
2022-11-06T07:24:01.114Z,8.90
2022-11-06T07:24:42.792Z,8.80
2022-11-06T07:25:25.438Z,8.80
2022-11-06T07:26:07.487Z,9.20
2022-11-06T07:26:49.837Z,8.90
2022-11-06T07:27:31.500Z,8.90
2022-11-06T07:28:13.128Z,9.00
2022-11-06T07:28:54.756Z,9.60
2022-11-06T07:29:36.416Z,8.90
2022-11-06T07:30:18.182Z,8.90
2022-11-06T07:31:01.765Z,9.20
2022-11-06T07:31:43.411Z,9.70
2022-11-06T07:32:25.058Z,9.00
2022-11-06T07:33:06.768Z,9.00
2022-11-06T07:33:48.416Z,9.00
2022-11-06T07:34:30.116Z,9.70
2022-11-06T07:35:11.776Z,9.40
2022-11-06T07:35:53.491Z,9.40
2022-11-06T07:36:36.073Z,9.10
2022-11-06T07:37:18.026Z,9.10
2022-11-06T07:38:02.561Z,10.30
2022-11-06T07:38:44.553Z,9.10
2022-11-06T07:39:26.268Z,9.20
2022-11-06T07:40:08.944Z,10.00
2022-11-06T07:40:50.896Z,9.20
2022-11-06T07:41:32.626Z,9.60
2022-11-06T07:42:14.288Z,9.20
2022-11-06T07:42:55.947Z,9.00
2022-11-06T07:43:38.077Z,9.20
2022-11-06T07:44:19.727Z,9.20
2022-11-06T07:45:01.448Z,10.60
2022-11-06T07:45:43.109Z,9.80
2022-11-06T07:46:24.800Z,9.30
2022-11-06T07:47:06.437Z,9.40
2022-11-06T07:47:48.063Z,9.40
2022-11-06T07:48:30.774Z,9.40
2022-11-06T07:49:12.499Z,9.30
2022-11-06T07:49:54.210Z,9.50
2022-11-06T07:50:35.839Z,9.50
2022-11-06T07:51:17.537Z,10.00
2022-11-06T07:51:59.262Z,9.50
2022-11-06T07:52:40.916Z,9.40
2022-11-06T07:53:22.724Z,9.80
2022-11-06T07:54:04.460Z,10.20
2022-11-06T07:54:46.488Z,9.50
2022-11-06T07:55:28.153Z,10.00
2022-11-06T07:56:09.862Z,9.70
2022-11-06T07:56:51.505Z,10.20
2022-11-06T07:57:36.596Z,10.80
2022-11-06T07:58:19.057Z,9.80
2022-11-06T07:59:00.757Z,9.90
2022-11-06T07:59:42.603Z,9.80
2022-11-06T08:00:24.252Z,9.30
2022-11-06T08:01:06.393Z,9.80
2022-11-06T08:01:48.345Z,9.80
2022-11-06T08:02:30.214Z,9.90
2022-11-06T08:03:11.974Z,10.30
2022-11-06T08:03:53.596Z,10.10
2022-11-06T08:04:35.241Z,9.80
2022-11-06T08:05:16.934Z,9.80
2022-11-06T08:05:59.560Z,9.80
2022-11-06T08:06:41.299Z,9.30
2022-11-06T08:07:22.936Z,9.80
2022-11-06T08:08:04.818Z,10.00
2022-11-06T08:08:46.480Z,9.70
2022-11-06T08:09:28.106Z,10.20
2022-11-06T08:10:09.869Z,9.90
2022-11-06T08:10:53.678Z,9.70
2022-11-06T08:11:35.550Z,9.70
2022-11-06T08:12:17.592Z,9.80
2022-11-06T08:13:02.133Z,9.80
2022-11-06T08:13:44.052Z,9.80
2022-11-06T08:14:25.791Z,9.70
2022-11-06T08:15:07.844Z,9.80
2022-11-06T08:15:49.933Z,9.90
2022-11-06T08:16:31.627Z,9.80
2022-11-06T08:17:13.499Z,10.50
2022-11-06T08:17:55.209Z,10.00
2022-11-06T08:18:37.182Z,10.60
2022-11-06T08:19:18.817Z,9.70
2022-11-06T08:20:00.464Z,9.90
2022-11-06T08:20:42.153Z,9.70
2022-11-06T08:21:23.863Z,10.40
2022-11-06T08:22:05.540Z,10.10
2022-11-06T08:22:47.208Z,10.30
2022-11-06T08:23:29.260Z,10.00
2022-11-06T08:24:11.104Z,10.10
2022-11-06T08:24:52.788Z,10.00
2022-11-06T08:25:34.924Z,10.10
2022-11-06T08:26:16.954Z,10.20
2022-11-06T08:26:59.530Z,10.10
2022-11-06T08:27:41.197Z,10.20
2022-11-06T08:28:24.285Z,10.20
2022-11-06T08:29:05.901Z,10.30
2022-11-06T08:29:47.561Z,10.20
2022-11-06T08:30:30.849Z,10.40
2022-11-06T08:31:12.696Z,11.20
2022-11-06T08:31:54.525Z,10.60
2022-11-06T08:32:36.202Z,10.60
2022-11-06T08:33:18.975Z,10.70
2022-11-06T08:34:00.821Z,10.80
2022-11-06T08:34:42.548Z,11.00
2022-11-06T08:35:24.178Z,11.40
2022-11-06T08:36:07.723Z,10.90
2022-11-06T08:36:50.248Z,10.80
2022-11-06T08:37:31.957Z,11.00
2022-11-06T08:38:14.205Z,12.00
2022-11-06T08:38:56.148Z,11.00
2022-11-06T08:39:37.828Z,11.40
2022-11-06T08:40:20.770Z,11.60
2022-11-06T08:41:07.314Z,11.00
2022-11-06T08:41:48.952Z,11.00
2022-11-06T08:42:30.621Z,11.20
2022-11-06T08:43:12.553Z,11.00
2022-11-06T08:43:54.512Z,11.00
2022-11-06T08:44:36.237Z,9.50
2022-11-06T08:45:17.962Z,11.90
2022-11-06T08:46:00.360Z,12.10
2022-11-06T08:46:45.336Z,11.10
2022-11-06T08:47:29.727Z,11.20
2022-11-06T08:48:11.774Z,11.30
2022-11-06T08:48:53.413Z,11.10
2022-11-06T08:49:35.066Z,10.80
2022-11-06T08:50:16.856Z,10.90
2022-11-06T08:50:58.522Z,11.10
2022-11-06T08:51:40.280Z,10.40
2022-11-06T08:52:22.097Z,11.10
2022-11-06T08:53:06.298Z,11.40
2022-11-06T08:53:48.017Z,11.60
2022-11-06T08:54:29.726Z,11.00
2022-11-06T08:55:11.383Z,11.60
2022-11-06T08:55:53.160Z,11.10
2022-11-06T08:56:34.823Z,11.80
2022-11-06T08:57:16.552Z,11.10
2022-11-06T08:57:58.219Z,12.20
2022-11-06T08:58:40.192Z,11.60
2022-11-06T08:59:21.888Z,11.10
2022-11-06T09:00:04.726Z,11.70
2022-11-06T09:00:46.412Z,11.20
2022-11-06T09:01:28.231Z,11.20
2022-11-06T09:02:13.853Z,11.30
2022-11-06T09:03:03.517Z,11.20
2022-11-06T09:03:45.138Z,11.30
2022-11-06T09:04:26.942Z,11.80
2022-11-06T09:05:09.042Z,11.30
2022-11-06T09:05:50.729Z,11.00
2022-11-06T09:06:32.397Z,11.60
2022-11-06T09:07:14.049Z,11.70
2022-11-06T09:07:56.764Z,11.60
2022-11-06T09:08:38.391Z,11.40
2022-11-06T09:09:20.099Z,11.70
2022-11-06T09:10:01.843Z,12.00
2022-11-06T09:10:44.314Z,11.30
2022-11-06T09:11:25.984Z,11.40
2022-11-06T09:12:07.887Z,11.40
2022-11-06T09:12:49.716Z,11.40
2022-11-06T09:13:31.371Z,11.50
2022-11-06T09:14:13.024Z,11.50
2022-11-06T09:14:54.664Z,11.50
2022-11-06T09:15:37.520Z,11.50
2022-11-06T09:16:19.197Z,11.50
2022-11-06T09:17:00.953Z,11.50
2022-11-06T09:17:52.492Z,11.50
2022-11-06T09:18:34.150Z,11.50
2022-11-06T09:19:16.424Z,11.30
2022-11-06T09:19:58.104Z,11.50
2022-11-06T09:20:39.820Z,11.50
2022-11-06T09:21:22.379Z,11.50
2022-11-06T09:22:04.060Z,11.30
2022-11-06T09:22:46.171Z,11.50
2022-11-06T09:23:27.819Z,11.60
2022-11-06T09:24:09.727Z,11.60
2022-11-06T09:25:03.109Z,11.60
2022-11-06T09:25:45.901Z,12.30
2022-11-06T09:26:27.549Z,11.70
2022-11-06T09:27:09.263Z,11.70
2022-11-06T09:27:58.811Z,12.10
2022-11-06T09:28:41.229Z,11.70
2022-11-06T09:29:22.892Z,11.70
2022-11-06T09:30:04.848Z,12.10
2022-11-06T09:30:46.556Z,11.70
2022-11-06T09:31:28.216Z,11.80
2022-11-06T09:32:10.855Z,11.60
2022-11-06T09:32:58.508Z,11.50
2022-11-06T09:33:40.233Z,11.70
2022-11-06T09:34:21.994Z,11.50
2022-11-06T09:35:04.186Z,11.50
2022-11-06T09:35:45.866Z,11.50
2022-11-06T09:36:27.521Z,11.30
2022-11-06T09:37:09.210Z,11.50
2022-11-06T09:37:51.255Z,11.20
2022-11-06T09:38:32.993Z,11.60
2022-11-06T09:39:14.842Z,11.50
2022-11-06T09:39:59.319Z,11.50
2022-11-06T09:40:53.413Z,11.50
2022-11-06T09:42:01.943Z,11.40
2022-11-06T09:44:03.012Z,11.60
2022-11-06T09:44:42.435Z,11.70
2022-11-06T09:45:27.945Z,11.70
2022-11-06T09:46:21.983Z,11.80
2022-11-06T09:47:13.284Z,11.80
2022-11-06T09:48:41.494Z,12.10
2022-11-06T09:49:32.224Z,11.90
2022-11-06T09:50:22.373Z,11.90
2022-11-06T09:51:22.371Z,11.90
2022-11-06T09:52:32.097Z,11.90
2022-11-06T09:53:23.089Z,11.90
2022-11-06T09:54:21.776Z,11.90
2022-11-06T09:55:12.651Z,12.10
2022-11-06T09:55:56.013Z,12.10
2022-11-06T09:56:41.221Z,12.20
2022-11-06T09:57:39.744Z,12.20
2022-11-06T09:58:30.545Z,12.20
2022-11-06T09:59:17.240Z,12.20
2022-11-06T10:00:01.763Z,13.00
2022-11-06T10:00:43.727Z,12.10
2022-11-06T10:01:34.834Z,12.40
2022-11-06T10:02:56.767Z,12.20
2022-11-06T10:03:58.775Z,12.30
2022-11-06T10:04:49.311Z,12.30
2022-11-06T10:05:36.416Z,12.30
2022-11-06T10:06:21.334Z,12.90
2022-11-06T10:07:03.039Z,12.40
2022-11-06T10:07:46.863Z,12.80
2022-11-06T10:08:30.140Z,12.70
2022-11-06T10:09:12.187Z,12.40
2022-11-06T10:09:54.083Z,12.40
2022-11-06T10:11:10.974Z,12.80
2022-11-06T10:12:17.398Z,12.60
2022-11-06T10:13:17.243Z,12.60
2022-11-06T10:14:07.884Z,12.60
2022-11-06T10:15:15.188Z,12.60
2022-11-06T10:16:23.025Z,12.50
2022-11-06T10:17:30.302Z,12.50